createdAt,value
2023-03-31T00:12:10.917Z,55.96
2023-03-31T00:27:13.631Z,58.58
2023-03-31T00:42:16.217Z,53.79
2023-03-31T00:57:18.831Z,57.97
2023-03-31T01:12:22.820Z,55.32
2023-03-31T01:27:54.210Z,59.40
2023-03-31T01:43:11.499Z,54.74
2023-03-31T01:58:21.671Z,60.39
2023-03-31T02:13:27.844Z,54.60
2023-03-31T02:28:31.388Z,61.18
2023-03-31T02:43:34.003Z,55.12
2023-03-31T02:58:55.765Z,61.40
2023-03-31T03:14:17.191Z,54.60
2023-03-31T03:29:19.732Z,60.76
2023-03-31T03:44:22.288Z,53.85
2023-03-31T03:59:25.062Z,59.90
2023-03-31T04:14:27.571Z,53.92
2023-03-31T04:29:33.691Z,55.96
2023-03-31T04:44:36.591Z,59.60
2023-03-31T04:59:39.304Z,66.45
2023-03-31T05:14:47.075Z,52.76
2023-03-31T05:29:50.144Z,54.76
2023-03-31T05:44:52.728Z,54.70
2023-03-31T05:59:55.369Z,50.07
2023-03-31T06:14:57.903Z,46.60
2023-03-31T06:30:00.791Z,46.05
2023-03-31T06:45:03.701Z,47.29
2023-03-31T07:00:07.969Z,50.10
2023-03-31T07:15:10.895Z,45.81
2023-03-31T07:30:16.568Z,46.16
2023-03-31T07:45:21.411Z,49.27
2023-03-31T08:00:24.856Z,52.08
2023-03-31T08:15:28.109Z,52.05
2023-03-31T08:30:30.771Z,43.83
2023-03-31T08:45:36.548Z,42.67
2023-03-31T09:00:51.369Z,42.48
2023-03-31T09:16:15.721Z,43.58
2023-03-31T09:31:21.073Z,43.21
2023-03-31T09:46:31.108Z,40.57
2023-03-31T10:01:36.036Z,43.15
2023-03-31T10:16:57.572Z,46.25
2023-03-31T10:32:18.517Z,48.04
2023-03-31T10:47:24.458Z,49.44
2023-03-31T11:02:39.437Z,50.68
2023-03-31T11:17:54.841Z,51.08
2023-03-31T11:33:16.282Z,49.82
2023-03-31T11:48:33.471Z,46.73
2023-03-31T12:04:23.713Z,46.93
2023-03-31T12:19:36.601Z,47.23
2023-03-31T12:34:47.689Z,48.16
2023-03-31T12:50:16.359Z,49.48
2023-03-31T13:05:37.501Z,51.18
2023-03-31T13:20:42.107Z,51.22
2023-03-31T13:35:50.234Z,52.83
2023-03-31T13:51:23.285Z,56.84
2023-03-31T14:06:35.779Z,57.37
2023-03-31T14:21:43.176Z,57.63
2023-03-31T14:37:08.336Z,58.74
2023-03-31T14:52:18.537Z,62.17
2023-03-31T15:07:21.187Z,55.35
2023-03-31T15:22:26.082Z,58.55
2023-03-31T15:37:35.547Z,55.48
2023-03-31T15:52:46.908Z,59.36
2023-03-31T16:07:49.749Z,56.65
2023-03-31T16:22:58.702Z,57.77
2023-03-31T16:38:04.304Z,59.99
2023-03-31T16:53:07.189Z,57.16
2023-03-31T17:08:10.417Z,58.03
2023-03-31T17:23:13.789Z,58.78
2023-03-31T17:38:19.378Z,63.97
2023-03-31T17:53:22.273Z,53.93
2023-03-31T18:08:24.986Z,58.09
2023-03-31T18:23:27.836Z,57.29
2023-03-31T18:38:30.646Z,60.75
2023-03-31T18:53:34.513Z,60.99
2023-03-31T19:08:38.160Z,57.30
2023-03-31T19:23:40.978Z,59.58
2023-03-31T19:38:43.918Z,60.66
2023-03-31T19:53:46.713Z,55.32
2023-03-31T20:08:52.200Z,58.24
2023-03-31T20:23:56.386Z,60.10
2023-03-31T20:39:00.890Z,65.11
2023-03-31T20:54:04.928Z,57.17
2023-03-31T21:09:08.612Z,59.39
2023-03-31T21:24:12.455Z,58.81
2023-03-31T21:39:15.287Z,62.14
2023-03-31T21:54:18.206Z,55.52
2023-03-31T22:09:21.145Z,58.21
2023-03-31T22:24:23.836Z,62.91
2023-03-31T22:39:26.702Z,55.79
2023-03-31T22:54:29.236Z,60.24
2023-03-31T23:09:31.893Z,55.67
2023-03-31T23:24:34.558Z,59.99
2023-03-31T23:39:38.914Z,59.40
2023-03-31T23:54:42.218Z,58.37
